This is the latest recevied weather packets stored in our database for station/object OE6ATD-13. If no packets are shown the sender has not sent any weather packets the latest 10 day(s).
| Time | Temp. | Humidity | Pressure | Rain* | Wind** | Luminosity | Snow |
|---|---|---|---|---|---|---|---|
| 1788007820 | 26.11° C | 47% | 1017.6 hPa | 0 mm | - | 335 W/m² | - |
| 1788007216 | 26.67° C | 45% | 1017.6 hPa | 0 mm | - | 421 W/m² | - |
| 1788006627 | 26.67° C | 45% | 1017.6 hPa | 0 mm | - | 609 W/m² | - |
| 1788006021 | 26.11° C | 47% | 1017.8 hPa | 0 mm | - | 555 W/m² | - |
| 1788005418 | 26.67° C | 46% | 1017.8 hPa | 0 mm | - | 343 W/m² | - |
| 1788004827 | 27.22° C | 48% | 1017.7 hPa | 0 mm | - | 497 W/m² | - |
| 1788004223 | 26.11° C | 48% | 1017.9 hPa | 0 mm | - | 477 W/m² | - |
| 1788003619 | 27.22° C | 44% | 1017.9 hPa | 0 mm | - | 517 W/m² | - |
| 1788003030 | 26.67° C | 46% | 1017.9 hPa | 0 mm | - | 890 W/m² | - |
| 1788002426 | 26.67° C | 49% | 1018 hPa | 0 mm | - | 994 W/m² | - |
| 1788001822 | 25.56° C | 51% | 1018 hPa | 0 mm | - | 905 W/m² | - |
| 1788001218 | 24.44° C | 54% | 1018.1 hPa | 0 mm | - | 783 W/m² | - |
| 1788000617 | 23.33° C | 56% | 1018.3 hPa | 0 mm | - | 362 W/m² | - |
| 1788000028 | 23.33° C | 56% | 1018.3 hPa | 0 mm | - | 207 W/m² | - |
| 1787999423 | 23.33° C | 56% | 1018.1 hPa | 0 mm | - | 373 W/m² | - |
| 1787998819 | 23.33° C | 57% | 1018.1 hPa | 0 mm | - | 246 W/m² | - |
| 1787998230 | 23.33° C | 56% | 1018.1 hPa | 0 mm | - | 178 W/m² | - |
| 1787997626 | 23.89° C | 58% | 1018 hPa | 0 mm | - | 679 W/m² | - |
| 1787997022 | 22.78° C | 59% | 1018.4 hPa | 0 mm | - | 201 W/m² | - |
| 1787996418 | 22.78° C | 60% | 1018.2 hPa | 0 mm | - | 143 W/m² | - |
| 1787995828 | 23.33° C | 60% | 1018 hPa | 0 mm | - | 354 W/m² | - |
| 1787995224 | 23.89° C | 55% | 1017.9 hPa | 0 mm | - | 195 W/m² | - |
| 1787994620 | 26.11° C | 45% | 1017.8 hPa | 0 mm | - | 252 W/m² | - |
| 1787994016 | 26.11° C | 45% | 1017.4 hPa | 0 mm | - | 850 W/m² | - |
| 1787993427 | 26.11° C | 46% | 1017.3 hPa | 0 mm | - | 781 W/m² | - |
* Rain latest hour (hover to see other rain measurements)
** Current wind speed in m/s (hover to see current wind gust speed)